Time;durP1;ratioP1;P1;durP2;ratioP2;P2;SDS_P1;SDS_P2;PMS_P1;PMS_P2;Temp;Humidity;BMP_temperature;BMP_pressure;BME280_temperature;BME280_humidity;BME280_pressure;Samples;Min_cycle;Max_cycle;Signal;HPM_P1;HPM_P2
2021/03/05 00:02:02;;;;;;;5.60;2.15;;;20.60;35.80;;;;;;5095358;28;20032;-60
2021/03/05 00:04:28;;;;;;;5.53;2.20;;;20.60;35.70;;;;;;5095476;28;20103;-59
2021/03/05 00:06:53;;;;;;;6.78;2.00;;;20.50;35.70;;;;;;5095409;28;20068;-59
2021/03/05 00:09:19;;;;;;;7.32;1.80;;;20.50;35.70;;;;;;5095252;28;20107;-59
2021/03/05 00:11:45;;;;;;;5.97;2.20;;;20.50;35.70;;;;;;5095558;28;20470;-59
2021/03/05 00:14:10;;;;;;;4.45;1.60;;;20.50;35.70;;;;;;5095131;28;20024;-60
2021/03/05 00:16:36;;;;;;;4.82;1.75;;;20.50;35.80;;;;;;5094858;28;20012;-59
2021/03/05 00:19:01;;;;;;;6.13;2.05;;;20.50;35.70;;;;;;5094773;28;20062;-59
2021/03/05 00:21:27;;;;;;;5.07;1.75;;;20.50;35.70;;;;;;5094797;28;20024;-59
2021/03/05 00:23:52;;;;;;;5.90;1.80;;;20.50;35.80;;;;;;5094557;28;20031;-59
2021/03/05 00:26:18;;;;;;;6.50;1.85;;;20.50;35.80;;;;;;5094713;28;20111;-59
2021/03/05 00:28:43;;;;;;;6.32;1.90;;;20.50;35.80;;;;;;5094694;28;20109;-60
2021/03/05 00:31:09;;;;;;;7.55;2.15;;;20.40;35.70;;;;;;5094506;28;20594;-60
2021/03/05 00:33:34;;;;;;;5.80;1.83;;;20.50;35.80;;;;;;5094564;28;20505;-60
2021/03/05 00:36:00;;;;;;;5.18;1.85;;;20.40;35.70;;;;;;5093773;28;20062;-60
2021/03/05 00:38:25;;;;;;;6.35;2.08;;;20.40;35.80;;;;;;5093372;28;20494;-59
2021/03/05 00:40:52;;;;;;;5.13;1.70;;;20.40;35.80;;;;;;5094704;28;20375;-59
2021/03/05 00:43:18;;;;;;;6.63;1.90;;;20.40;35.70;;;;;;5094762;28;20024;-59
2021/03/05 00:45:44;;;;;;;6.80;2.15;;;20.40;35.80;;;;;;5094691;28;20058;-60
2021/03/05 00:48:10;;;;;;;4.95;1.70;;;20.40;35.80;;;;;;5094542;28;20028;-59
2021/03/05 00:50:35;;;;;;;6.95;2.05;;;20.40;35.80;;;;;;5094389;28;20034;-60
2021/03/05 00:53:01;;;;;;;7.25;2.40;;;20.40;35.70;;;;;;5093959;28;20032;-60
2021/03/05 00:55:26;;;;;;;5.35;1.67;;;20.40;35.80;;;;;;5094280;28;20028;-60
2021/03/05 00:57:52;;;;;;;6.55;2.25;;;20.40;35.80;;;;;;5094087;28;20081;-59
2021/03/05 01:00:18;;;;;;;6.15;2.10;;;20.40;35.80;;;;;;5094022;28;20040;-60
2021/03/05 01:02:44;;;;;;;5.88;1.70;;;20.30;35.80;;;;;;5094003;28;20030;-60
2021/03/05 01:05:10;;;;;;;5.70;1.83;;;20.30;35.70;;;;;;5093952;28;20020;-60
2021/03/05 01:07:36;;;;;;;7.32;2.15;;;20.30;35.70;;;;;;5093696;28;20078;-60
2021/03/05 01:10:04;;;;;;;5.80;1.95;;;20.30;35.80;;;;;;5094507;28;20024;-60
2021/03/05 01:12:30;;;;;;;5.57;2.00;;;20.30;35.80;;;;;;5093843;28;20027;-62
2021/03/05 01:14:55;;;;;;;5.72;2.05;;;20.30;35.80;;;;;;5095737;28;20027;-60
2021/03/05 01:17:21;;;;;;;6.75;2.15;;;20.30;35.80;;;;;;5095272;28;20036;-60
2021/03/05 01:19:46;;;;;;;7.20;2.28;;;20.30;35.80;;;;;;5094197;28;20071;-60
2021/03/05 01:22:12;;;;;;;5.15;1.88;;;20.30;35.80;;;;;;5093824;28;20028;-60
2021/03/05 01:24:37;;;;;;;6.88;2.08;;;20.30;35.70;;;;;;5094272;28;20658;-59
2021/03/05 01:27:03;;;;;;;5.85;1.90;;;20.20;35.70;;;;;;5093604;28;20028;-60
2021/03/05 01:29:29;;;;;;;6.22;2.00;;;20.20;35.70;;;;;;5094064;28;20396;-60
2021/03/05 01:31:54;;;;;;;6.28;2.13;;;20.20;35.60;;;;;;5093497;28;20020;-59
2021/03/05 01:34:21;;;;;;;6.47;2.08;;;20.20;35.50;;;;;;5093551;28;20039;-60
2021/03/05 01:36:46;;;;;;;5.85;2.15;;;20.20;35.60;;;;;;5093814;28;20440;-59
2021/03/05 01:39:12;;;;;;;6.57;1.98;;;20.20;35.60;;;;;;5093463;28;20516;-59
2021/03/05 01:41:38;;;;;;;5.40;2.10;;;20.10;35.60;;;;;;5093354;28;20020;-59
2021/03/05 01:44:06;;;;;;;4.88;1.85;;;20.10;35.60;;;;;;5093300;28;20400;-59
2021/03/05 01:46:33;;;;;;;7.30;2.45;;;20.10;35.30;;;;;;5095337;28;20027;-59
2021/03/05 01:48:58;;;;;;;5.97;2.10;;;20.20;35.40;;;;;;5097955;28;20467;-59
2021/03/05 01:51:28;;;;;;;7.28;2.05;;;20.10;35.30;;;;;;5096886;28;20039;-59
2021/03/05 01:53:54;;;;;;;7.95;2.00;;;20.10;35.40;;;;;;5097499;28;20041;-59
2021/03/05 01:56:35;;;;;;;3.92;1.63;;;20.10;35.50;;;;;;5096914;28;20467;-59
2021/03/05 01:59:02;;;;;;;5.90;2.10;;;20.10;35.40;;;;;;5097007;28;20024;-59
2021/03/05 02:01:30;;;;;;;5.25;2.05;;;20.10;35.50;;;;;;5096990;28;20028;-59
2021/03/05 02:03:56;;;;;;;4.20;1.60;;;20.10;35.40;;;;;;5096856;28;20036;-59
2021/03/05 02:06:22;;;;;;;7.90;2.60;;;20.00;35.40;;;;;;5095937;28;20384;-59
2021/03/05 02:08:49;;;;;;;7.07;1.90;;;20.00;35.40;;;;;;5097174;28;20028;-59
2021/03/05 02:11:17;;;;;;;5.50;1.60;;;20.00;35.30;;;;;;5097359;28;20031;-60
2021/03/05 02:13:43;;;;;;;5.38;2.08;;;20.00;35.30;;;;;;5097331;28;20422;-60
2021/03/05 02:16:28;;;;;;;7.07;1.98;;;20.00;35.30;;;;;;5096675;28;20023;-60
2021/03/05 02:19:01;;;;;;;4.95;1.80;;;20.00;35.30;;;;;;5099589;28;20597;-60
2021/03/05 02:21:57;;;;;;;5.30;1.85;;;20.00;35.40;;;;;;5097131;28;20114;-60
2021/03/05 02:24:53;;;;;;;5.38;1.63;;;20.00;35.40;;;;;;5097309;28;20056;-59
2021/03/05 02:27:18;;;;;;;;;;;20.00;35.30;;;;;;5097182;28;20475;-60
2021/03/05 02:29:52;;;;;;;6.70;1.77;;;20.00;35.30;;;;;;5097116;28;19998;-59
2021/03/05 02:32:25;;;;;;;4.25;1.80;;;20.00;35.30;;;;;;5096906;28;20107;-60
2021/03/05 02:34:52;;;;;;;4.32;1.48;;;20.00;35.30;;;;;;5096963;28;20064;-60
2021/03/05 02:37:19;;;;;;;4.38;1.77;;;19.90;35.40;;;;;;5096785;28;20031;-60
2021/03/05 02:40:00;;;;;;;6.53;1.98;;;20.00;35.30;;;;;;5096900;28;20047;-60
2021/03/05 02:42:48;;;;;;;6.40;1.75;;;19.90;35.20;;;;;;5096319;28;20464;-59
2021/03/05 02:45:27;;;;;;;5.97;2.13;;;19.90;35.20;;;;;;5096105;28;20048;-60
2021/03/05 02:48:00;;;;;;;4.78;1.70;;;19.90;35.20;;;;;;5096283;28;20058;-59
2021/03/05 02:50:27;;;;;;;3.95;1.60;;;19.90;35.20;;;;;;5096431;28;20511;-59
2021/03/05 02:52:56;;;;;;;4.10;1.83;;;19.90;35.20;;;;;;5096675;28;20031;-59
2021/03/05 02:55:23;;;;;;;4.90;1.52;;;19.90;35.30;;;;;;5096588;28;20031;-59
2021/03/05 02:57:55;;;;;;;4.47;1.67;;;19.90;35.20;;;;;;5095607;28;20039;-59
2021/03/05 03:00:22;;;;;;;3.90;1.65;;;19.90;35.20;;;;;;5096209;28;20073;-59
2021/03/05 03:02:48;;;;;;;6.32;2.10;;;19.90;35.20;;;;;;5095905;28;20028;-59
2021/03/05 03:05:14;;;;;;;5.18;1.90;;;19.80;35.20;;;;;;5096684;28;20463;-59
2021/03/05 03:07:41;;;;;;;5.72;1.73;;;19.90;35.10;;;;;;5096448;28;20105;-59
2021/03/05 03:10:10;;;;;;;4.80;1.58;;;19.90;35.20;;;;;;5096455;28;20035;-60
2021/03/05 03:12:37;;;;;;;3.10;1.52;;;19.90;35.20;;;;;;5100078;28;20024;-60
2021/03/05 03:15:08;;;;;;;4.28;1.63;;;19.80;35.30;;;;;;5099384;28;20020;-59
2021/03/05 03:17:35;;;;;;;4.80;2.00;;;19.80;35.20;;;;;;5095481;28;20038;-59
2021/03/05 03:20:02;;;;;;;4.32;1.38;;;19.80;35.10;;;;;;5095949;28;20032;-59
2021/03/05 03:22:28;;;;;;;4.75;1.80;;;19.80;35.20;;;;;;5095593;28;20028;-60
2021/03/05 03:24:55;;;;;;;4.18;1.65;;;19.80;35.10;;;;;;5095068;28;20046;-59
2021/03/05 03:27:20;;;;;;;4.93;1.70;;;19.80;35.10;;;;;;5095974;28;20023;-59
2021/03/05 03:29:46;;;;;;;3.80;1.33;;;19.80;35.00;;;;;;5096717;28;20031;-59
2021/03/05 03:32:12;;;;;;;3.22;1.52;;;19.80;35.10;;;;;;5102198;28;20414;-59
2021/03/05 03:34:41;;;;;;;3.75;1.60;;;19.80;35.00;;;;;;5096592;28;20099;-61
2021/03/05 03:37:09;;;;;;;3.95;1.52;;;19.70;35.00;;;;;;5095935;28;20032;-61
2021/03/05 03:39:35;;;;;;;3.50;1.33;;;19.70;34.90;;;;;;5095693;28;20020;-59
2021/03/05 03:42:02;;;;;;;3.72;1.55;;;19.70;35.00;;;;;;5095924;28;20024;-60
2021/03/05 03:44:28;;;;;;;4.53;1.75;;;19.70;35.00;;;;;;5094033;28;20046;-59
2021/03/05 03:46:54;;;;;;;4.60;1.67;;;19.60;34.90;;;;;;5095570;28;20020;-59
2021/03/05 03:49:44;;;;;;;3.28;1.40;;;19.70;34.90;;;;;;5096008;28;20024;-59
2021/03/05 03:52:22;;;;;;;4.22;1.35;;;19.70;34.80;;;;;;5095231;28;20016;-59
2021/03/05 03:54:50;;;;;;;4.00;1.30;;;19.60;34.70;;;;;;5095531;28;20099;-59
2021/03/05 03:57:17;;;;;;;2.97;1.40;;;19.70;34.80;;;;;;5095922;28;20048;-59
2021/03/05 03:59:44;;;;;;;4.00;1.38;;;19.60;34.60;;;;;;5093930;28;20361;-59
2021/03/05 04:02:10;;;;;;;4.47;1.65;;;19.60;34.40;;;;;;5095425;28;20029;-59
2021/03/05 04:04:37;;;;;;;4.80;1.70;;;19.60;34.50;;;;;;5095255;28;20395;-60
2021/03/05 04:07:06;;;;;;;3.35;1.50;;;19.60;34.60;;;;;;5095498;28;20081;-59
2021/03/05 04:09:36;;;;;;;5.25;1.65;;;19.60;34.60;;;;;;5094395;28;20034;-60
2021/03/05 04:12:03;;;;;;;5.32;1.27;;;19.60;34.60;;;;;;5095185;28;20035;-60
2021/03/05 04:14:30;;;;;;;3.03;1.30;;;19.60;34.60;;;;;;5094863;28;20016;-60
2021/03/05 04:16:56;;;;;;;4.82;1.40;;;19.50;34.70;;;;;;5094967;28;20514;-59
2021/03/05 04:19:23;;;;;;;2.33;1.10;;;19.60;34.70;;;;;;5095291;28;20044;-60
2021/03/05 04:21:49;;;;;;;4.35;1.20;;;19.60;34.50;;;;;;5093860;28;20387;-60
2021/03/05 04:24:16;;;;;;;2.92;1.30;;;19.50;34.60;;;;;;5095146;28;20037;-60
2021/03/05 04:26:41;;;;;;;1.95;0.95;;;19.50;34.40;;;;;;5094799;28;20555;-60
2021/03/05 04:29:07;;;;;;;3.20;1.33;;;19.50;34.60;;;;;;5094987;28;20170;-59
2021/03/05 04:31:33;;;;;;;2.58;1.05;;;19.50;34.60;;;;;;5093186;28;20020;-60
2021/03/05 04:33:59;;;;;;;3.85;1.30;;;19.50;34.50;;;;;;5094657;28;20043;-60
2021/03/05 04:36:24;;;;;;;2.33;1.05;;;19.50;34.30;;;;;;5094531;28;20103;-59
2021/03/05 04:38:50;;;;;;;2.20;1.00;;;19.50;34.30;;;;;;5094465;28;20035;-59
2021/03/05 04:41:15;;;;;;;5.15;1.85;;;19.50;34.30;;;;;;5094648;28;20030;-59
2021/03/05 04:43:41;;;;;;;3.03;1.25;;;19.50;34.20;;;;;;5094433;28;20437;-60
2021/03/05 04:46:07;;;;;;;2.92;1.20;;;19.50;34.30;;;;;;5094146;28;20043;-60
2021/03/05 04:48:33;;;;;;;4.25;1.10;;;19.50;34.30;;;;;;5094105;28;20027;-60
2021/03/05 04:50:58;;;;;;;4.28;1.13;;;19.40;34.30;;;;;;5094314;28;20501;-59
2021/03/05 04:53:24;;;;;;;3.40;1.25;;;19.50;34.30;;;;;;5094089;28;20024;-59
2021/03/05 04:55:50;;;;;;;3.00;1.17;;;19.50;34.20;;;;;;5093729;28;20107;-59
2021/03/05 04:58:15;;;;;;;3.80;1.40;;;19.40;34.20;;;;;;5094083;28;20060;-59
2021/03/05 05:00:41;;;;;;;2.97;1.27;;;19.40;34.30;;;;;;5094537;28;20020;-59
2021/03/05 05:03:06;;;;;;;3.13;1.40;;;19.40;34.20;;;;;;5094445;28;20020;-59
2021/03/05 05:05:32;;;;;;;3.53;1.35;;;19.40;34.10;;;;;;5094225;28;20024;-60
2021/03/05 05:07:57;;;;;;;3.50;1.25;;;19.40;34.20;;;;;;5094027;28;20028;-60
2021/03/05 05:10:24;;;;;;;5.38;1.80;;;19.40;34.00;;;;;;5093842;28;20020;-60
2021/03/05 05:12:50;;;;;;;3.85;0.95;;;19.40;34.10;;;;;;5093568;28;20035;-59
2021/03/05 05:15:15;;;;;;;2.95;1.05;;;19.40;34.00;;;;;;5094043;28;20024;-59
2021/03/05 05:17:41;;;;;;;2.72;1.13;;;19.40;34.00;;;;;;5093838;28;20066;-59
2021/03/05 05:20:07;;;;;;;3.35;1.25;;;19.50;34.00;;;;;;5094325;28;20027;-59
2021/03/05 05:22:34;;;;;;;4.55;1.10;;;19.50;33.90;;;;;;5093793;28;20505;-59
2021/03/05 05:25:00;;;;;;;4.95;1.63;;;19.50;34.00;;;;;;5094326;28;20382;-59
2021/03/05 05:27:26;;;;;;;3.00;0.98;;;19.50;33.90;;;;;;5093742;28;20020;-59
2021/03/05 05:29:52;;;;;;;4.28;1.23;;;19.50;34.00;;;;;;5092410;28;20471;-59
2021/03/05 05:32:17;;;;;;;3.38;1.05;;;19.50;33.90;;;;;;5093522;28;20022;-59
2021/03/05 05:34:43;;;;;;;1.98;0.82;;;19.50;33.80;;;;;;5093921;28;20016;-60
2021/03/05 05:37:08;;;;;;;4.40;1.10;;;19.60;33.80;;;;;;5093748;28;20073;-60
2021/03/05 05:39:34;;;;;;;3.63;1.35;;;19.60;33.70;;;;;;5093894;28;20024;-60
2021/03/05 05:42:00;;;;;;;3.22;1.10;;;19.60;33.80;;;;;;5093620;28;20475;-60
2021/03/05 05:44:26;;;;;;;3.45;0.85;;;19.60;33.60;;;;;;5093393;28;20036;-60
2021/03/05 05:46:52;;;;;;;2.22;0.85;;;19.60;33.60;;;;;;5093646;28;20032;-60
2021/03/05 05:49:19;;;;;;;3.50;1.08;;;19.70;33.50;;;;;;5093772;28;20065;-60
2021/03/05 05:51:47;;;;;;;2.00;0.90;;;19.70;33.50;;;;;;5093816;28;20094;-59
2021/03/05 05:54:21;;;;;;;3.13;1.00;;;19.70;33.60;;;;;;5092615;28;20456;-60
2021/03/05 05:56:47;;;;;;;3.92;1.10;;;19.80;33.50;;;;;;5094147;28;20024;-60
2021/03/05 05:59:12;;;;;;;2.10;0.98;;;19.80;33.60;;;;;;5094302;28;20034;-59
2021/03/05 06:01:40;;;;;;;1.50;0.90;;;19.80;33.50;;;;;;5094785;28;20032;-59
2021/03/05 06:04:07;;;;;;;3.00;1.00;;;19.80;33.40;;;;;;5095012;28;20043;-59
2021/03/05 06:06:33;;;;;;;3.83;1.10;;;19.80;33.40;;;;;;5094654;28;20016;-60
2021/03/05 06:09:00;;;;;;;2.67;0.90;;;19.80;33.30;;;;;;5094537;28;20028;-59
2021/03/05 06:11:40;;;;;;;2.13;0.80;;;19.80;33.30;;;;;;5094409;28;20028;-60
2021/03/05 06:14:10;;;;;;;4.75;1.27;;;19.80;33.40;;;;;;5096549;28;20540;-60
2021/03/05 06:17:00;;;;;;;2.70;0.85;;;19.90;33.40;;;;;;5100493;28;20031;-59
2021/03/05 06:19:28;;;;;;;2.58;0.90;;;19.90;33.30;;;;;;5101509;28;20096;-60
2021/03/05 06:21:54;;;;;;;2.28;0.80;;;19.90;33.20;;;;;;5097852;28;20101;-60
2021/03/05 06:24:21;;;;;;;2.65;1.02;;;19.90;33.20;;;;;;5095120;28;20070;-60
2021/03/05 06:26:56;;;;;;;2.85;1.10;;;19.90;33.20;;;;;;5094985;28;20467;-59
2021/03/05 06:29:27;;;;;;;3.78;1.40;;;19.90;33.20;;;;;;5095526;28;20024;-60
2021/03/05 06:32:00;;;;;;;2.92;0.93;;;20.00;33.10;;;;;;5095037;28;20024;-60
2021/03/05 06:34:27;;;;;;;1.67;0.77;;;20.00;33.10;;;;;;5099297;28;20020;-60
2021/03/05 06:37:04;;;;;;;2.40;0.98;;;20.00;33.10;;;;;;5101305;28;20028;-60
2021/03/05 06:39:32;;;;;;;5.05;1.15;;;20.00;33.10;;;;;;5101313;28;20023;-60
2021/03/05 06:42:09;;;;;;;2.38;0.90;;;20.00;33.10;;;;;;5101589;28;20491;-60
2021/03/05 06:44:39;;;;;;;2.50;0.93;;;20.00;33.00;;;;;;5101427;28;20043;-60
2021/03/05 06:47:20;;;;;;;3.47;1.13;;;20.00;32.90;;;;;;5098893;28;20433;-60
2021/03/05 06:49:48;;;;;;;2.45;0.80;;;20.00;33.00;;;;;;5099857;28;20371;-60
2021/03/05 06:52:15;;;;;;;2.05;0.82;;;20.00;33.00;;;;;;5101114;28;20020;-61
2021/03/05 06:54:42;;;;;;;4.15;1.17;;;20.00;33.00;;;;;;5097842;28;20069;-61
2021/03/05 06:57:09;;;;;;;3.22;1.23;;;20.10;33.00;;;;;;5099703;28;20024;-60
2021/03/05 06:59:42;;;;;;;2.88;1.05;;;20.10;32.90;;;;;;5100675;28;20073;-60
2021/03/05 07:02:29;;;;;;;2.47;0.90;;;20.10;32.80;;;;;;5103373;28;20030;-60
2021/03/05 07:04:54;;;;;;;2.05;1.00;;;20.10;32.70;;;;;;5103524;28;20032;-59
2021/03/05 07:07:20;;;;;;;1.77;0.80;;;20.10;32.80;;;;;;5102834;28;20027;-59
2021/03/05 07:09:54;;;;;;;2.13;0.98;;;20.10;32.80;;;;;;5104270;28;20028;-59
2021/03/05 07:12:24;;;;;;;4.15;0.93;;;20.10;32.80;;;;;;5105514;28;20089;-59
2021/03/05 07:14:59;;;;;;;3.20;1.00;;;20.20;32.70;;;;;;5097749;28;20020;-59
2021/03/05 07:17:26;;;;;;;1.85;0.80;;;20.20;32.60;;;;;;5095989;28;20160;-59
2021/03/05 07:19:51;;;;;;;1.77;0.85;;;20.20;32.70;;;;;;5095960;28;20077;-59
2021/03/05 07:22:18;;;;;;;3.08;1.15;;;20.20;32.50;;;;;;5095663;28;20471;-59
2021/03/05 07:24:49;;;;;;;3.53;0.95;;;20.20;32.60;;;;;;5096175;28;20028;-59
2021/03/05 07:27:15;;;;;;;3.80;0.90;;;20.20;32.60;;;;;;5096910;28;20016;-59
2021/03/05 07:29:45;;;;;;;3.53;1.33;;;20.20;32.50;;;;;;5097009;28;20029;-59
2021/03/05 07:32:21;;;;;;;2.08;0.80;;;20.20;32.50;;;;;;5096516;28;20020;-59
2021/03/05 07:34:56;;;;;;;1.55;0.73;;;20.20;32.50;;;;;;5096227;28;20379;-59
2021/03/05 07:37:29;;;;;;;2.35;0.90;;;20.30;32.40;;;;;;5096320;28;20081;-59
2021/03/05 07:40:04;;;;;;;3.13;0.93;;;20.30;32.30;;;;;;5099180;28;20029;-60
2021/03/05 07:42:31;;;;;;;2.55;0.90;;;20.30;32.20;;;;;;5103315;28;20020;-59
2021/03/05 07:44:57;;;;;;;2.33;1.00;;;20.40;32.20;;;;;;5102440;28;20061;-60
2021/03/05 07:47:25;;;;;;;3.33;1.00;;;20.40;32.30;;;;;;5101713;28;20028;-59
2021/03/05 07:49:52;;;;;;;2.75;1.05;;;20.40;32.30;;;;;;5103063;28;20410;-60
2021/03/05 07:52:19;;;;;;;1.90;0.82;;;20.40;32.10;;;;;;5098906;28;20020;-60
2021/03/05 07:54:47;;;;;;;3.58;1.05;;;20.40;32.10;;;;;;5099882;28;20024;-60
2021/03/05 07:57:18;;;;;;;2.35;1.00;;;20.40;32.20;;;;;;5097408;28;20051;-60
2021/03/05 07:59:45;;;;;;;1.45;0.77;;;20.50;32.10;;;;;;5098790;28;20076;-59
2021/03/05 08:02:12;;;;;;;4.35;1.10;;;20.40;32.00;;;;;;5097376;28;20023;-59
2021/03/05 08:04:56;;;;;;;3.15;0.85;;;20.50;32.10;;;;;;5096564;28;20088;-60
2021/03/05 08:07:23;;;;;;;4.45;1.05;;;20.50;32.00;;;;;;5097266;28;20028;-60
2021/03/05 08:09:50;;;;;;;2.90;1.00;;;20.40;31.90;;;;;;5097117;28;20036;-60
2021/03/05 08:12:42;;;;;;;4.60;1.30;;;20.50;32.00;;;;;;5095881;28;20039;-60
2021/03/05 08:15:08;;;;;;;2.88;1.13;;;20.50;31.80;;;;;;5095707;28;20525;-59
2021/03/05 08:17:45;;;;;;;2.42;0.63;;;20.50;31.80;;;;;;5095686;28;20093;-59
2021/03/05 08:20:33;;;;;;;1.65;0.70;;;20.50;31.80;;;;;;5096166;28;20637;-60
2021/03/05 08:22:59;;;;;;;3.67;0.95;;;20.50;32.00;;;;;;5094358;28;20020;-59
2021/03/05 08:25:30;;;;;;;3.67;1.10;;;20.50;31.90;;;;;;5095185;28;20498;-59
2021/03/05 08:28:01;;;;;;;2.78;0.90;;;20.50;31.90;;;;;;5095428;28;20483;-60
2021/03/05 08:30:26;;;;;;;3.05;0.93;;;20.50;31.80;;;;;;5094737;28;20160;-61
2021/03/05 08:32:52;;;;;;;3.10;1.00;;;20.50;31.80;;;;;;5094455;28;20048;-60
2021/03/05 08:35:30;;;;;;;2.75;1.00;;;20.60;31.90;;;;;;5095107;28;20069;-59
2021/03/05 08:38:03;;;;;;;3.88;1.13;;;20.60;31.90;;;;;;5096248;28;20028;-59
2021/03/05 08:40:36;;;;;;;3.67;1.00;;;20.60;31.80;;;;;;5094974;28;20050;-59
2021/03/05 08:43:10;;;;;;;2.80;0.75;;;20.60;31.70;;;;;;5094652;28;20048;-60
2021/03/05 08:45:50;;;;;;;3.97;0.95;;;20.70;31.90;;;;;;5094669;28;20109;-60
2021/03/05 08:48:43;;;;;;;2.10;0.80;;;20.70;31.70;;;;;;5094749;28;20030;-60
2021/03/05 08:51:16;;;;;;;1.95;0.70;;;20.60;31.70;;;;;;5094330;28;20019;-60
2021/03/05 08:53:48;;;;;;;1.45;0.70;;;20.60;31.70;;;;;;5093928;28;20407;-58
2021/03/05 08:56:33;;;;;;;3.97;1.00;;;20.60;31.70;;;;;;5093253;28;20032;-59
2021/03/05 08:59:11;;;;;;;2.45;0.75;;;20.70;31.50;;;;;;5093938;28;20099;-59
2021/03/05 09:01:41;;;;;;;2.55;0.85;;;20.70;31.60;;;;;;5093815;28;20468;-60
2021/03/05 09:04:10;;;;;;;5.35;0.90;;;20.70;31.60;;;;;;5093887;28;20093;-59
2021/03/05 09:06:45;;;;;;;2.22;0.90;;;20.70;31.50;;;;;;5095017;28;20039;-59
2021/03/05 09:09:11;;;;;;;2.72;1.00;;;20.70;31.30;;;;;;5095042;28;20020;-59
2021/03/05 09:11:37;;;;;;;3.10;0.90;;;20.70;31.40;;;;;;5094283;28;20063;-59
2021/03/05 09:14:22;;;;;;;2.20;0.70;;;20.70;31.50;;;;;;5095166;28;20023;-59
2021/03/05 09:17:02;;;;;;;1.67;0.70;;;20.70;31.50;;;;;;5101603;28;20357;-59
2021/03/05 09:19:39;;;;;;;2.65;0.85;;;20.70;31.40;;;;;;5093790;28;20040;-60
2021/03/05 09:22:10;;;;;;;2.22;0.70;;;20.70;31.20;;;;;;5094146;28;20031;-60
2021/03/05 09:24:55;;;;;;;2.42;0.77;;;20.70;31.30;;;;;;5093997;28;20032;-60
2021/03/05 09:27:29;;;;;;;3.47;0.80;;;20.80;31.30;;;;;;5093296;28;20032;-60
2021/03/05 09:29:56;;;;;;;2.20;0.70;;;20.80;31.20;;;;;;5093607;28;20031;-59
2021/03/05 09:32:22;;;;;;;2.80;1.10;;;20.80;31.20;;;;;;5094027;28;20024;-59
2021/03/05 09:34:57;;;;;;;2.72;0.90;;;20.80;31.30;;;;;;5094068;28;20472;-59
2021/03/05 09:37:28;;;;;;;1.83;0.73;;;20.80;31.20;;;;;;5091885;28;20028;-60
2021/03/05 09:39:55;;;;;;;2.65;0.98;;;20.80;31.20;;;;;;5092837;28;20031;-60
2021/03/05 09:42:42;;;;;;;3.58;0.75;;;20.80;31.00;;;;;;5092690;28;20024;-60
2021/03/05 09:45:08;;;;;;;2.90;1.00;;;20.90;31.00;;;;;;5092791;28;20032;-60
2021/03/05 09:47:49;;;;;;;2.15;0.80;;;20.90;31.10;;;;;;5093042;28;20020;-60
2021/03/05 09:50:19;;;;;;;2.03;0.77;;;20.90;31.00;;;;;;5092791;28;20024;-60
2021/03/05 09:52:45;;;;;;;2.60;0.80;;;20.90;30.90;;;;;;5092711;28;20432;-59
2021/03/05 09:55:22;;;;;;;4.00;1.15;;;21.00;30.90;;;;;;5092918;28;20054;-59
2021/03/05 09:57:48;;;;;;;2.83;1.10;;;20.90;31.00;;;;;;5091374;28;20024;-60
2021/03/05 10:00:29;;;;;;;2.83;0.88;;;21.00;30.90;;;;;;5092676;28;20070;-59
2021/03/05 10:03:13;;;;;;;3.47;0.75;;;21.00;30.80;;;;;;5092764;28;20030;-60
2021/03/05 10:05:40;;;;;;;1.88;0.70;;;21.00;30.40;;;;;;5092607;28;20060;-59
2021/03/05 10:08:21;;;;;;;3.15;0.88;;;21.00;30.40;;;;;;5093943;28;20069;-60
2021/03/05 10:11:07;;;;;;;1.45;0.65;;;21.10;30.30;;;;;;5096598;28;20066;-60
2021/03/05 10:13:56;;;;;;;3.30;1.00;;;21.10;30.50;;;;;;5097140;28;20028;-60
2021/03/05 10:16:33;;;;;;;1.83;0.60;;;21.10;30.20;;;;;;5097416;28;20069;-60
2021/03/05 10:19:14;;;;;;;2.22;0.70;;;21.20;30.40;;;;;;5096576;28;20062;-60
2021/03/05 10:21:42;;;;;;;1.85;0.73;;;21.20;30.50;;;;;;5096722;28;20100;-60
2021/03/05 10:24:12;;;;;;;2.22;0.88;;;21.20;30.30;;;;;;5096792;28;20055;-60
2021/03/05 10:27:10;;;;;;;2.38;0.60;;;21.20;30.20;;;;;;5097095;28;20039;-60
2021/03/05 10:29:24;;;;;;;1.95;0.63;;;21.30;30.40;;;;;;5096958;28;20493;-60
2021/03/05 10:31:52;;;;;;;2.10;0.77;;;21.30;30.10;;;;;;5096709;28;20016;-60
2021/03/05 10:34:31;;;;;;;3.30;0.60;;;21.30;30.00;;;;;;5096507;28;20024;-60
2021/03/05 10:37:02;;;;;;;2.28;0.80;;;21.40;29.50;;;;;;5096550;28;20020;-60
2021/03/05 10:39:33;;;;;;;4.03;1.00;;;21.40;29.50;;;;;;5096580;28;20097;-60
2021/03/05 10:42:04;;;;;;;2.47;0.65;;;21.50;30.00;;;;;;5096278;28;20051;-60
2021/03/05 10:44:31;;;;;;;1.88;0.40;;;21.50;29.90;;;;;;5096005;28;20115;-61
2021/03/05 10:47:02;;;;;;;2.00;0.75;;;21.50;30.00;;;;;;5095762;28;20564;-61
2021/03/05 10:49:28;;;;;;;1.95;1.00;;;21.50;29.90;;;;;;5096105;28;20468;-60
2021/03/05 10:51:55;;;;;;;2.38;0.80;;;21.50;29.90;;;;;;5096237;28;20378;-60
2021/03/05 10:54:20;;;;;;;1.95;0.70;;;21.60;29.70;;;;;;5096030;28;20030;-60
2021/03/05 10:56:49;;;;;;;0.90;0.47;;;21.60;29.50;;;;;;5096083;28;20020;-60
2021/03/05 10:59:17;;;;;;;2.38;0.77;;;21.60;29.70;;;;;;5095860;28;20089;-60
2021/03/05 11:01:44;;;;;;;4.75;0.93;;;21.60;29.40;;;;;;5095557;28;20024;-60
2021/03/05 11:04:09;;;;;;;2.90;0.95;;;21.70;29.50;;;;;;5095750;28;20395;-59
2021/03/05 11:06:35;;;;;;;1.95;0.50;;;21.70;29.20;;;;;;5095748;28;20016;-60
2021/03/05 11:09:03;;;;;;;1.42;0.63;;;21.70;29.70;;;;;;5096086;28;20028;-60
2021/03/05 11:11:29;;;;;;;4.65;0.63;;;21.80;29.10;;;;;;5095766;28;20039;-59
2021/03/05 11:13:55;;;;;;;1.35;0.50;;;21.80;29.10;;;;;;5095970;28;20024;-61
2021/03/05 11:16:20;;;;;;;3.42;0.60;;;21.80;29.30;;;;;;5095957;28;20036;-61
2021/03/05 11:18:46;;;;;;;1.80;0.60;;;21.90;29.00;;;;;;5095525;28;20491;-61
2021/03/05 11:21:11;;;;;;;1.92;0.60;;;22.00;28.90;;;;;;5096085;28;20111;-60
2021/03/05 11:23:37;;;;;;;3.45;0.70;;;21.90;28.90;;;;;;5096025;28;20035;-61
2021/03/05 11:26:02;;;;;;;2.50;0.75;;;21.80;29.00;;;;;;5096171;28;20028;-61
2021/03/05 11:28:28;;;;;;;2.42;0.70;;;21.90;28.70;;;;;;5095996;28;20032;-61
2021/03/05 11:30:53;;;;;;;2.15;0.70;;;22.00;28.60;;;;;;5094119;28;20024;-60
2021/03/05 11:33:19;;;;;;;2.33;0.90;;;22.00;28.50;;;;;;5095906;28;20383;-60
2021/03/05 11:35:44;;;;;;;2.88;0.85;;;22.00;28.50;;;;;;5095843;28;20016;-60
2021/03/05 11:38:10;;;;;;;5.53;1.15;;;22.00;28.50;;;;;;5095634;28;20023;-61
2021/03/05 11:40:35;;;;;;;2.65;0.70;;;22.00;28.60;;;;;;5095392;28;20051;-60
2021/03/05 11:43:02;;;;;;;2.17;0.70;;;22.00;28.50;;;;;;5095812;28;20031;-60
2021/03/05 11:45:27;;;;;;;1.80;0.60;;;22.00;28.90;;;;;;5096428;28;20020;-60
2021/03/05 11:47:53;;;;;;;2.75;0.55;;;22.00;28.20;;;;;;5099970;28;20042;-62
2021/03/05 11:50:19;;;;;;;1.48;0.45;;;22.10;28.00;;;;;;5095370;28;20036;-61
2021/03/05 11:52:44;;;;;;;2.47;0.65;;;22.10;28.20;;;;;;5095171;28;20024;-61
2021/03/05 11:55:11;;;;;;;2.13;0.70;;;22.20;28.00;;;;;;5095170;28;20027;-61
2021/03/05 11:57:36;;;;;;;3.42;0.73;;;22.20;28.00;;;;;;5095212;28;20028;-61
2021/03/05 12:00:07;;;;;;;1.58;0.50;;;22.30;28.50;;;;;;5095076;28;20475;-61
2021/03/05 12:02:33;;;;;;;1.00;0.50;;;22.40;28.00;;;;;;5095364;28;20077;-61
2021/03/05 12:04:58;;;;;;;2.28;0.52;;;22.40;28.10;;;;;;5095347;28;20051;-61
2021/03/05 12:07:24;;;;;;;1.95;0.50;;;22.50;28.10;;;;;;5095050;28;20016;-61
2021/03/05 12:09:49;;;;;;;2.13;0.70;;;22.50;28.20;;;;;;5097524;28;20031;-61
2021/03/05 12:12:15;;;;;;;1.77;0.70;;;22.60;28.20;;;;;;5096040;28;20028;-60
2021/03/05 12:14:40;;;;;;;1.98;0.43;;;22.60;28.00;;;;;;5095328;28;20471;-61
2021/03/05 12:17:06;;;;;;;3.03;0.73;;;22.70;27.90;;;;;;5095166;28;20471;-59
2021/03/05 12:19:32;;;;;;;3.35;0.80;;;22.70;27.80;;;;;;5094635;28;20090;-60
2021/03/05 12:21:57;;;;;;;1.17;0.60;;;22.70;28.00;;;;;;5095220;28;20052;-61
2021/03/05 12:24:23;;;;;;;1.80;0.60;;;22.70;28.00;;;;;;5094696;28;20078;-60
2021/03/05 12:26:49;;;;;;;1.38;0.40;;;22.70;27.90;;;;;;5094391;28;20048;-59
2021/03/05 12:29:14;;;;;;;1.65;0.50;;;22.70;27.90;;;;;;5094495;28;20024;-59
2021/03/05 12:31:40;;;;;;;2.15;0.65;;;22.60;27.80;;;;;;5093821;28;20055;-60
2021/03/05 12:34:05;;;;;;;2.83;0.70;;;22.60;28.10;;;;;;5094615;28;20039;-60
2021/03/05 12:36:31;;;;;;;1.92;0.47;;;22.50;28.20;;;;;;5094809;28;20115;-60
2021/03/05 12:38:57;;;;;;;2.65;0.70;;;22.40;28.00;;;;;;5094314;28;20024;-60
2021/03/05 12:41:23;;;;;;;1.90;0.57;;;22.30;28.30;;;;;;5094173;28;20024;-60
2021/03/05 12:43:48;;;;;;;1.05;0.47;;;22.30;28.10;;;;;;5092541;28;20036;-60
2021/03/05 12:46:14;;;;;;;4.20;0.68;;;22.30;28.40;;;;;;5094014;28;20036;-59
2021/03/05 12:48:40;;;;;;;2.85;1.00;;;22.20;28.50;;;;;;5094035;28;20024;-60
2021/03/05 12:51:05;;;;;;;2.08;0.70;;;22.20;28.20;;;;;;5094000;28;20077;-60
2021/03/05 12:53:31;;;;;;;1.33;0.60;;;22.10;28.00;;;;;;5093845;28;20474;-60
2021/03/05 12:55:57;;;;;;;3.13;0.65;;;22.10;28.30;;;;;;5093754;28;20036;-60
2021/03/05 12:58:22;;;;;;;2.50;0.50;;;22.00;28.00;;;;;;5094391;28;20020;-61